sensor_id;sensor_type;location;lat;lon;timestamp;temperature;humidity
31677;DHT22;18385;51.572;6.578;2024-01-15T00:02:19;5.40;73.80
31677;DHT22;18385;51.572;6.578;2024-01-15T00:04:45;5.50;74.00
31677;DHT22;18385;51.572;6.578;2024-01-15T00:07:10;5.50;73.90
31677;DHT22;18385;51.572;6.578;2024-01-15T00:09:36;5.50;73.70
31677;DHT22;18385;51.572;6.578;2024-01-15T00:12:02;5.50;73.80
31677;DHT22;18385;51.572;6.578;2024-01-15T00:14:28;5.50;73.90
31677;DHT22;18385;51.572;6.578;2024-01-15T00:16:54;5.50;73.60
31677;DHT22;18385;51.572;6.578;2024-01-15T00:19:23;5.40;73.50
31677;DHT22;18385;51.572;6.578;2024-01-15T00:21:49;5.40;73.80
31677;DHT22;18385;51.572;6.578;2024-01-15T00:24:15;5.40;73.80
31677;DHT22;18385;51.572;6.578;2024-01-15T00:26:41;5.30;73.70
31677;DHT22;18385;51.572;6.578;2024-01-15T00:29:07;5.30;73.90
31677;DHT22;18385;51.572;6.578;2024-01-15T00:31:33;5.30;74.00
31677;DHT22;18385;51.572;6.578;2024-01-15T00:33:59;5.30;73.80
31677;DHT22;18385;51.572;6.578;2024-01-15T00:36:25;5.30;73.80
31677;DHT22;18385;51.572;6.578;2024-01-15T00:38:50;5.20;73.90
31677;DHT22;18385;51.572;6.578;2024-01-15T00:41:17;5.20;74.10
31677;DHT22;18385;51.572;6.578;2024-01-15T00:43:44;5.20;74.20
31677;DHT22;18385;51.572;6.578;2024-01-15T00:46:10;5.30;74.20
31677;DHT22;18385;51.572;6.578;2024-01-15T00:48:36;5.30;74.10
31677;DHT22;18385;51.572;6.578;2024-01-15T00:51:02;5.30;74.10
31677;DHT22;18385;51.572;6.578;2024-01-15T00:53:27;5.40;74.10
31677;DHT22;18385;51.572;6.578;2024-01-15T00:55:53;5.40;73.90
31677;DHT22;18385;51.572;6.578;2024-01-15T00:58:19;5.30;73.80
31677;DHT22;18385;51.572;6.578;2024-01-15T01:00:45;5.20;73.80
31677;DHT22;18385;51.572;6.578;2024-01-15T01:03:10;5.20;74.00
31677;DHT22;18385;51.572;6.578;2024-01-15T01:05:36;5.20;74.10
31677;DHT22;18385;51.572;6.578;2024-01-15T01:08:01;5.20;74.20
31677;DHT22;18385;51.572;6.578;2024-01-15T01:10:27;5.10;74.10
31677;DHT22;18385;51.572;6.578;2024-01-15T01:12:53;5.20;74.40
31677;DHT22;18385;51.572;6.578;2024-01-15T01:15:19;5.20;74.30
31677;DHT22;18385;51.572;6.578;2024-01-15T01:17:45;5.30;74.50
31677;DHT22;18385;51.572;6.578;2024-01-15T01:20:11;5.40;74.30
31677;DHT22;18385;51.572;6.578;2024-01-15T01:22:38;5.50;74.30
31677;DHT22;18385;51.572;6.578;2024-01-15T01:25:04;5.50;74.10
31677;DHT22;18385;51.572;6.578;2024-01-15T01:27:30;5.50;73.80
31677;DHT22;18385;51.572;6.578;2024-01-15T01:29:55;5.50;74.00
31677;DHT22;18385;51.572;6.578;2024-01-15T01:32:21;5.60;74.10
31677;DHT22;18385;51.572;6.578;2024-01-15T01:34:47;5.60;74.10
31677;DHT22;18385;51.572;6.578;2024-01-15T01:37:13;5.70;74.00
31677;DHT22;18385;51.572;6.578;2024-01-15T01:39:42;5.70;73.70
31677;DHT22;18385;51.572;6.578;2024-01-15T01:42:08;5.70;73.70
31677;DHT22;18385;51.572;6.578;2024-01-15T01:44:33;5.60;73.70
31677;DHT22;18385;51.572;6.578;2024-01-15T01:47:00;5.60;73.70
31677;DHT22;18385;51.572;6.578;2024-01-15T01:49:27;5.60;74.00
31677;DHT22;18385;51.572;6.578;2024-01-15T01:51:53;5.70;74.00
31677;DHT22;18385;51.572;6.578;2024-01-15T01:54:19;5.70;73.90
31677;DHT22;18385;51.572;6.578;2024-01-15T01:56:47;5.70;73.90
31677;DHT22;18385;51.572;6.578;2024-01-15T01:59:14;5.70;73.90
31677;DHT22;18385;51.572;6.578;2024-01-15T02:01:40;5.70;73.70
31677;DHT22;18385;51.572;6.578;2024-01-15T02:04:06;5.70;73.70
31677;DHT22;18385;51.572;6.578;2024-01-15T02:06:32;5.60;73.50
31677;DHT22;18385;51.572;6.578;2024-01-15T02:08:58;5.50;73.70
31677;DHT22;18385;51.572;6.578;2024-01-15T02:11:24;5.50;74.00
31677;DHT22;18385;51.572;6.578;2024-01-15T02:13:50;5.60;74.10
31677;DHT22;18385;51.572;6.578;2024-01-15T02:16:15;5.60;74.00
31677;DHT22;18385;51.572;6.578;2024-01-15T02:18:42;5.60;74.00
31677;DHT22;18385;51.572;6.578;2024-01-15T02:21:09;5.60;73.90
31677;DHT22;18385;51.572;6.578;2024-01-15T02:23:34;5.60;73.90
31677;DHT22;18385;51.572;6.578;2024-01-15T02:26:00;5.70;73.90
31677;DHT22;18385;51.572;6.578;2024-01-15T02:28:26;5.70;73.80
31677;DHT22;18385;51.572;6.578;2024-01-15T02:30:52;5.60;73.60
31677;DHT22;18385;51.572;6.578;2024-01-15T02:33:17;5.60;73.60
31677;DHT22;18385;51.572;6.578;2024-01-15T02:35:43;5.50;73.70
31677;DHT22;18385;51.572;6.578;2024-01-15T02:38:09;5.50;73.80
31677;DHT22;18385;51.572;6.578;2024-01-15T02:40:35;5.50;74.20
31677;DHT22;18385;51.572;6.578;2024-01-15T02:43:01;5.60;74.10
31677;DHT22;18385;51.572;6.578;2024-01-15T02:45:26;5.70;73.80
31677;DHT22;18385;51.572;6.578;2024-01-15T02:47:52;5.70;73.80
31677;DHT22;18385;51.572;6.578;2024-01-15T02:50:18;5.70;73.90
31677;DHT22;18385;51.572;6.578;2024-01-15T02:52:44;5.70;73.90
31677;DHT22;18385;51.572;6.578;2024-01-15T02:55:09;5.60;73.50
31677;DHT22;18385;51.572;6.578;2024-01-15T02:57:35;5.50;73.50
31677;DHT22;18385;51.572;6.578;2024-01-15T03:00:01;5.30;73.40
31677;DHT22;18385;51.572;6.578;2024-01-15T03:02:27;5.20;73.60
31677;DHT22;18385;51.572;6.578;2024-01-15T03:04:53;5.00;73.80
31677;DHT22;18385;51.572;6.578;2024-01-15T03:07:18;5.00;74.20
31677;DHT22;18385;51.572;6.578;2024-01-15T03:09:44;5.00;74.40
31677;DHT22;18385;51.572;6.578;2024-01-15T03:12:10;5.00;74.50
31677;DHT22;18385;51.572;6.578;2024-01-15T03:14:39;5.00;74.50
31677;DHT22;18385;51.572;6.578;2024-01-15T03:17:05;5.10;74.60
31677;DHT22;18385;51.572;6.578;2024-01-15T03:19:34;5.10;74.50
31677;DHT22;18385;51.572;6.578;2024-01-15T03:22:00;5.10;74.20
31677;DHT22;18385;51.572;6.578;2024-01-15T03:24:28;5.10;74.10
31677;DHT22;18385;51.572;6.578;2024-01-15T03:26:53;5.10;74.40
31677;DHT22;18385;51.572;6.578;2024-01-15T03:29:19;5.10;74.50
31677;DHT22;18385;51.572;6.578;2024-01-15T03:31:45;5.10;74.50
31677;DHT22;18385;51.572;6.578;2024-01-15T03:34:15;5.10;74.20
31677;DHT22;18385;51.572;6.578;2024-01-15T03:36:40;5.10;74.20
31677;DHT22;18385;51.572;6.578;2024-01-15T03:39:06;5.00;74.20
31677;DHT22;18385;51.572;6.578;2024-01-15T03:41:33;4.90;74.30
31677;DHT22;18385;51.572;6.578;2024-01-15T03:43:58;4.90;74.40
31677;DHT22;18385;51.572;6.578;2024-01-15T03:46:24;4.80;74.40
31677;DHT22;18385;51.572;6.578;2024-01-15T03:48:50;4.80;74.60
31677;DHT22;18385;51.572;6.578;2024-01-15T03:51:17;4.80;74.50
31677;DHT22;18385;51.572;6.578;2024-01-15T03:53:43;4.80;74.60
31677;DHT22;18385;51.572;6.578;2024-01-15T03:56:09;4.80;74.80
31677;DHT22;18385;51.572;6.578;2024-01-15T03:58:35;4.90;74.80
31677;DHT22;18385;51.572;6.578;2024-01-15T04:01:00;4.90;74.70
31677;DHT22;18385;51.572;6.578;2024-01-15T04:03:26;5.00;74.80
31677;DHT22;18385;51.572;6.578;2024-01-15T04:05:51;5.10;74.80
31677;DHT22;18385;51.572;6.578;2024-01-15T04:08:18;5.20;74.80
31677;DHT22;18385;51.572;6.578;2024-01-15T04:10:44;5.20;74.50
31677;DHT22;18385;51.572;6.578;2024-01-15T04:13:09;5.30;74.50
31677;DHT22;18385;51.572;6.578;2024-01-15T04:15:35;5.30;74.40
31677;DHT22;18385;51.572;6.578;2024-01-15T04:18:02;5.30;74.40
31677;DHT22;18385;51.572;6.578;2024-01-15T04:20:28;5.30;74.20
31677;DHT22;18385;51.572;6.578;2024-01-15T04:22:54;5.20;74.10
31677;DHT22;18385;51.572;6.578;2024-01-15T04:25:19;5.20;74.10
31677;DHT22;18385;51.572;6.578;2024-01-15T04:27:45;5.20;74.20
31677;DHT22;18385;51.572;6.578;2024-01-15T04:30:11;5.10;74.20
31677;DHT22;18385;51.572;6.578;2024-01-15T04:32:37;5.10;74.20
31677;DHT22;18385;51.572;6.578;2024-01-15T04:35:03;5.00;74.30
31677;DHT22;18385;51.572;6.578;2024-01-15T04:37:28;5.00;74.30
31677;DHT22;18385;51.572;6.578;2024-01-15T04:39:54;5.00;74.40
31677;DHT22;18385;51.572;6.578;2024-01-15T04:42:21;5.00;74.50
31677;DHT22;18385;51.572;6.578;2024-01-15T04:44:47;5.00;74.30
31677;DHT22;18385;51.572;6.578;2024-01-15T04:47:13;5.00;74.40
31677;DHT22;18385;51.572;6.578;2024-01-15T04:49:39;5.00;74.50
31677;DHT22;18385;51.572;6.578;2024-01-15T04:52:04;5.00;74.40
31677;DHT22;18385;51.572;6.578;2024-01-15T04:54:30;5.00;74.40
31677;DHT22;18385;51.572;6.578;2024-01-15T04:56:56;5.00;74.30
31677;DHT22;18385;51.572;6.578;2024-01-15T04:59:21;4.90;74.20
31677;DHT22;18385;51.572;6.578;2024-01-15T05:01:48;4.90;74.40
31677;DHT22;18385;51.572;6.578;2024-01-15T05:04:14;4.90;74.70
31677;DHT22;18385;51.572;6.578;2024-01-15T05:06:40;4.90;74.80
31677;DHT22;18385;51.572;6.578;2024-01-15T05:09:06;5.10;75.00
31677;DHT22;18385;51.572;6.578;2024-01-15T05:11:32;5.10;74.70
31677;DHT22;18385;51.572;6.578;2024-01-15T05:13:58;5.20;74.70
31677;DHT22;18385;51.572;6.578;2024-01-15T05:16:24;5.20;74.50
31677;DHT22;18385;51.572;6.578;2024-01-15T05:18:52;5.20;74.30
31677;DHT22;18385;51.572;6.578;2024-01-15T05:21:18;5.20;74.10
31677;DHT22;18385;51.572;6.578;2024-01-15T05:23:43;5.10;74.50
31677;DHT22;18385;51.572;6.578;2024-01-15T05:26:09;5.00;74.10
31677;DHT22;18385;51.572;6.578;2024-01-15T05:28:35;5.00;74.40
31677;DHT22;18385;51.572;6.578;2024-01-15T05:31:03;4.90;74.30
31677;DHT22;18385;51.572;6.578;2024-01-15T05:33:30;5.00;74.60
31677;DHT22;18385;51.572;6.578;2024-01-15T05:35:58;5.00;74.60
31677;DHT22;18385;51.572;6.578;2024-01-15T05:38:24;5.00;74.40
31677;DHT22;18385;51.572;6.578;2024-01-15T05:40:50;5.00;74.40
31677;DHT22;18385;51.572;6.578;2024-01-15T05:43:18;5.00;74.40
31677;DHT22;18385;51.572;6.578;2024-01-15T05:45:59;5.00;74.40
31677;DHT22;18385;51.572;6.578;2024-01-15T05:48:28;5.10;74.80
31677;DHT22;18385;51.572;6.578;2024-01-15T05:50:54;5.20;74.70
31677;DHT22;18385;51.572;6.578;2024-01-15T05:53:19;5.20;74.70
31677;DHT22;18385;51.572;6.578;2024-01-15T05:55:45;5.30;74.60
31677;DHT22;18385;51.572;6.578;2024-01-15T05:58:11;5.30;74.50
31677;DHT22;18385;51.572;6.578;2024-01-15T06:00:37;5.40;74.60
31677;DHT22;18385;51.572;6.578;2024-01-15T06:03:03;5.50;74.50
31677;DHT22;18385;51.572;6.578;2024-01-15T06:05:30;5.50;74.20
31677;DHT22;18385;51.572;6.578;2024-01-15T06:08:01;5.50;74.30
31677;DHT22;18385;51.572;6.578;2024-01-15T06:10:27;5.60;74.40
31677;DHT22;18385;51.572;6.578;2024-01-15T06:12:53;5.60;74.30
31677;DHT22;18385;51.572;6.578;2024-01-15T06:15:18;5.60;74.10
31677;DHT22;18385;51.572;6.578;2024-01-15T06:17:44;5.60;74.10
31677;DHT22;18385;51.572;6.578;2024-01-15T06:20:10;5.60;73.90
31677;DHT22;18385;51.572;6.578;2024-01-15T06:22:36;5.50;73.90
31677;DHT22;18385;51.572;6.578;2024-01-15T06:25:02;5.50;74.10
31677;DHT22;18385;51.572;6.578;2024-01-15T06:27:28;5.40;74.10
31677;DHT22;18385;51.572;6.578;2024-01-15T06:29:54;5.40;74.20
31677;DHT22;18385;51.572;6.578;2024-01-15T06:32:21;5.40;74.30
31677;DHT22;18385;51.572;6.578;2024-01-15T06:34:47;5.40;74.30
31677;DHT22;18385;51.572;6.578;2024-01-15T06:37:12;5.40;74.40
31677;DHT22;18385;51.572;6.578;2024-01-15T06:39:38;5.40;74.20
31677;DHT22;18385;51.572;6.578;2024-01-15T06:42:04;5.40;74.20
31677;DHT22;18385;51.572;6.578;2024-01-15T06:44:30;5.30;74.10
31677;DHT22;18385;51.572;6.578;2024-01-15T06:46:55;5.30;74.30
31677;DHT22;18385;51.572;6.578;2024-01-15T06:49:23;5.30;74.30
31677;DHT22;18385;51.572;6.578;2024-01-15T06:51:49;5.30;74.50
31677;DHT22;18385;51.572;6.578;2024-01-15T06:54:14;5.40;74.50
31677;DHT22;18385;51.572;6.578;2024-01-15T06:56:40;5.40;74.40
31677;DHT22;18385;51.572;6.578;2024-01-15T06:59:05;5.50;74.50
31677;DHT22;18385;51.572;6.578;2024-01-15T07:01:31;5.50;74.30
31677;DHT22;18385;51.572;6.578;2024-01-15T07:03:56;5.50;74.30
31677;DHT22;18385;51.572;6.578;2024-01-15T07:06:22;5.40;74.20
31677;DHT22;18385;51.572;6.578;2024-01-15T07:08:49;5.50;74.50
31677;DHT22;18385;51.572;6.578;2024-01-15T07:11:15;5.60;74.50
31677;DHT22;18385;51.572;6.578;2024-01-15T07:13:41;5.60;74.30
31677;DHT22;18385;51.572;6.578;2024-01-15T07:16:06;5.60;74.30
31677;DHT22;18385;51.572;6.578;2024-01-15T07:18:32;5.70;74.30
31677;DHT22;18385;51.572;6.578;2024-01-15T07:20:58;5.70;74.10
31677;DHT22;18385;51.572;6.578;2024-01-15T07:23:24;5.70;74.00
31677;DHT22;18385;51.572;6.578;2024-01-15T07:25:50;5.70;74.00
31677;DHT22;18385;51.572;6.578;2024-01-15T07:28:16;5.80;74.10
31677;DHT22;18385;51.572;6.578;2024-01-15T07:30:41;5.80;73.80
31677;DHT22;18385;51.572;6.578;2024-01-15T07:33:07;5.70;73.60
31677;DHT22;18385;51.572;6.578;2024-01-15T07:35:33;5.70;73.70
31677;DHT22;18385;51.572;6.578;2024-01-15T07:37:59;5.70;73.80
31677;DHT22;18385;51.572;6.578;2024-01-15T07:40:25;5.70;73.80
31677;DHT22;18385;51.572;6.578;2024-01-15T07:42:51;5.70;73.70
31677;DHT22;18385;51.572;6.578;2024-01-15T07:45:25;5.70;73.70
31677;DHT22;18385;51.572;6.578;2024-01-15T07:47:59;5.70;73.80
31677;DHT22;18385;51.572;6.578;2024-01-15T07:50:25;5.60;73.80
31677;DHT22;18385;51.572;6.578;2024-01-15T07:53:20;5.70;73.90
31677;DHT22;18385;51.572;6.578;2024-01-15T07:55:50;5.70;74.00
31677;DHT22;18385;51.572;6.578;2024-01-15T07:58:24;5.70;74.00
31677;DHT22;18385;51.572;6.578;2024-01-15T08:00:49;5.70;73.90
31677;DHT22;18385;51.572;6.578;2024-01-15T08:03:15;5.70;73.80
31677;DHT22;18385;51.572;6.578;2024-01-15T08:05:46;5.70;73.70
31677;DHT22;18385;51.572;6.578;2024-01-15T08:08:29;5.70;73.80
31677;DHT22;18385;51.572;6.578;2024-01-15T08:10:58;5.70;73.70
31677;DHT22;18385;51.572;6.578;2024-01-15T08:13:37;5.70;73.70
31677;DHT22;18385;51.572;6.578;2024-01-15T08:16:07;5.60;73.60
31677;DHT22;18385;51.572;6.578;2024-01-15T08:18:38;5.60;73.30
31677;DHT22;18385;51.572;6.578;2024-01-15T08:21:11;5.50;73.20
31677;DHT22;18385;51.572;6.578;2024-01-15T08:23:37;5.30;73.10
31677;DHT22;18385;51.572;6.578;2024-01-15T08:26:08;5.20;73.30
31677;DHT22;18385;51.572;6.578;2024-01-15T08:28:40;5.20;73.30
31677;DHT22;18385;51.572;6.578;2024-01-15T08:31:10;5.20;73.50
31677;DHT22;18385;51.572;6.578;2024-01-15T08:33:48;5.20;73.70
31677;DHT22;18385;51.572;6.578;2024-01-15T08:36:25;5.10;73.70
31677;DHT22;18385;51.572;6.578;2024-01-15T08:39:12;5.10;73.80
31677;DHT22;18385;51.572;6.578;2024-01-15T08:45:10;5.00;74.00
31677;DHT22;18385;51.572;6.578;2024-01-15T08:51:04;5.00;74.00
31677;DHT22;18385;51.572;6.578;2024-01-15T08:53:59;4.90;74.20
31677;DHT22;18385;51.572;6.578;2024-01-15T08:57:08;5.00;74.40
31677;DHT22;18385;51.572;6.578;2024-01-15T08:59:47;5.10;74.30
31677;DHT22;18385;51.572;6.578;2024-01-15T09:02:13;5.20;74.30
31677;DHT22;18385;51.572;6.578;2024-01-15T09:04:39;5.30;74.00
31677;DHT22;18385;51.572;6.578;2024-01-15T09:07:05;5.30;74.00
31677;DHT22;18385;51.572;6.578;2024-01-15T09:09:30;5.40;74.10
31677;DHT22;18385;51.572;6.578;2024-01-15T09:11:56;5.40;73.60
31677;DHT22;18385;51.572;6.578;2024-01-15T09:14:45;5.40;73.70
31677;DHT22;18385;51.572;6.578;2024-01-15T09:17:16;5.40;73.70
31677;DHT22;18385;51.572;6.578;2024-01-15T09:19:41;5.40;73.80
31677;DHT22;18385;51.572;6.578;2024-01-15T09:22:08;5.50;73.90
31677;DHT22;18385;51.572;6.578;2024-01-15T09:24:33;5.50;73.80
31677;DHT22;18385;51.572;6.578;2024-01-15T09:26:59;5.60;73.60
31677;DHT22;18385;51.572;6.578;2024-01-15T09:29:25;5.60;73.50
31677;DHT22;18385;51.572;6.578;2024-01-15T09:31:51;5.60;73.30
31677;DHT22;18385;51.572;6.578;2024-01-15T09:34:17;5.60;73.40
31677;DHT22;18385;51.572;6.578;2024-01-15T09:36:43;5.60;73.60
31677;DHT22;18385;51.572;6.578;2024-01-15T09:39:09;5.70;73.60
31677;DHT22;18385;51.572;6.578;2024-01-15T09:41:37;5.70;73.40
31677;DHT22;18385;51.572;6.578;2024-01-15T09:44:03;5.70;73.50
31677;DHT22;18385;51.572;6.578;2024-01-15T09:46:31;5.60;73.50
31677;DHT22;18385;51.572;6.578;2024-01-15T09:48:58;5.70;73.80
31677;DHT22;18385;51.572;6.578;2024-01-15T09:51:24;5.70;73.60
31677;DHT22;18385;51.572;6.578;2024-01-15T09:53:50;5.70;74.50
31677;DHT22;18385;51.572;6.578;2024-01-15T09:56:17;5.80;73.80
31677;DHT22;18385;51.572;6.578;2024-01-15T09:58:42;5.90;73.80
31677;DHT22;18385;51.572;6.578;2024-01-15T10:01:09;5.90;73.40
31677;DHT22;18385;51.572;6.578;2024-01-15T10:03:36;5.90;73.50
31677;DHT22;18385;51.572;6.578;2024-01-15T10:06:03;5.90;73.50
31677;DHT22;18385;51.572;6.578;2024-01-15T10:08:30;5.90;73.60
31677;DHT22;18385;51.572;6.578;2024-01-15T10:10:55;6.00;73.50
31677;DHT22;18385;51.572;6.578;2024-01-15T10:13:22;6.00;73.40
31677;DHT22;18385;51.572;6.578;2024-01-15T10:15:48;5.90;73.20
31677;DHT22;18385;51.572;6.578;2024-01-15T10:18:13;5.80;73.20
31677;DHT22;18385;51.572;6.578;2024-01-15T10:20:40;5.70;73.20
31677;DHT22;18385;51.572;6.578;2024-01-15T10:23:05;5.60;73.30
31677;DHT22;18385;51.572;6.578;2024-01-15T10:25:31;5.40;73.30
31677;DHT22;18385;51.572;6.578;2024-01-15T10:28:01;5.20;73.70
31677;DHT22;18385;51.572;6.578;2024-01-15T10:30:27;5.20;74.10
31677;DHT22;18385;51.572;6.578;2024-01-15T10:33:03;5.20;74.50
31677;DHT22;18385;51.572;6.578;2024-01-15T10:35:30;5.30;74.90
31677;DHT22;18385;51.572;6.578;2024-01-15T10:37:56;5.50;74.80
31677;DHT22;18385;51.572;6.578;2024-01-15T10:40:22;5.60;74.60
31677;DHT22;18385;51.572;6.578;2024-01-15T10:42:47;5.70;74.70
31677;DHT22;18385;51.572;6.578;2024-01-15T10:45:16;5.80;74.40
31677;DHT22;18385;51.572;6.578;2024-01-15T10:47:43;5.90;74.50
31677;DHT22;18385;51.572;6.578;2024-01-15T10:50:09;6.00;74.50
31677;DHT22;18385;51.572;6.578;2024-01-15T10:52:36;6.20;74.30
31677;DHT22;18385;51.572;6.578;2024-01-15T10:55:03;6.30;74.10
31677;DHT22;18385;51.572;6.578;2024-01-15T10:57:30;6.40;73.80
31677;DHT22;18385;51.572;6.578;2024-01-15T10:59:56;6.30;73.20
31677;DHT22;18385;51.572;6.578;2024-01-15T11:02:22;6.20;73.20
31677;DHT22;18385;51.572;6.578;2024-01-15T11:04:48;6.10;73.60
31677;DHT22;18385;51.572;6.578;2024-01-15T11:07:14;6.20;74.10
31677;DHT22;18385;51.572;6.578;2024-01-15T11:09:40;6.30;74.40
31677;DHT22;18385;51.572;6.578;2024-01-15T11:12:12;6.50;74.10
31677;DHT22;18385;51.572;6.578;2024-01-15T11:14:40;6.60;73.70
31677;DHT22;18385;51.572;6.578;2024-01-15T11:17:06;6.60;73.30
31677;DHT22;18385;51.572;6.578;2024-01-15T11:19:45;6.50;73.00
31677;DHT22;18385;51.572;6.578;2024-01-15T11:22:47;6.40;73.30
31677;DHT22;18385;51.572;6.578;2024-01-15T11:25:14;6.40;73.80
31677;DHT22;18385;51.572;6.578;2024-01-15T11:27:42;6.40;73.80
31677;DHT22;18385;51.572;6.578;2024-01-15T11:30:09;6.40;74.00
31677;DHT22;18385;51.572;6.578;2024-01-15T11:32:36;6.60;74.30
31677;DHT22;18385;51.572;6.578;2024-01-15T11:35:02;6.70;73.70
31677;DHT22;18385;51.572;6.578;2024-01-15T11:37:29;6.60;73.40
31677;DHT22;18385;51.572;6.578;2024-01-15T11:40:18;6.60;73.30
31677;DHT22;18385;51.572;6.578;2024-01-15T11:42:45;6.60;73.50
31677;DHT22;18385;51.572;6.578;2024-01-15T11:45:13;6.50;73.20
31677;DHT22;18385;51.572;6.578;2024-01-15T11:50:33;6.40;73.90
31677;DHT22;18385;51.572;6.578;2024-01-15T11:53:01;6.50;73.80
31677;DHT22;18385;51.572;6.578;2024-01-15T11:55:29;6.50;73.50
31677;DHT22;18385;51.572;6.578;2024-01-15T11:57:55;6.50;73.60
31677;DHT22;18385;51.572;6.578;2024-01-15T12:00:23;6.80;74.50
31677;DHT22;18385;51.572;6.578;2024-01-15T12:02:52;7.20;74.60
31677;DHT22;18385;51.572;6.578;2024-01-15T12:05:26;7.60;74.20
31677;DHT22;18385;51.572;6.578;2024-01-15T12:12:07;8.00;72.40
31677;DHT22;18385;51.572;6.578;2024-01-15T12:19:13;8.00;71.80
31677;DHT22;18385;51.572;6.578;2024-01-15T12:22:41;7.70;71.30
31677;DHT22;18385;51.572;6.578;2024-01-15T12:25:12;7.20;71.10
31677;DHT22;18385;51.572;6.578;2024-01-15T12:29:08;7.00;71.80
31677;DHT22;18385;51.572;6.578;2024-01-15T12:31:59;6.80;72.20
31677;DHT22;18385;51.572;6.578;2024-01-15T13:05:11;6.00;72.60
31677;DHT22;18385;51.572;6.578;2024-01-15T13:12:30;6.00;73.90
31677;DHT22;18385;51.572;6.578;2024-01-15T13:31:55;6.50;73.70
31677;DHT22;18385;51.572;6.578;2024-01-15T13:34:21;6.70;74.00
31677;DHT22;18385;51.572;6.578;2024-01-15T13:36:47;6.90;73.60
31677;DHT22;18385;51.572;6.578;2024-01-15T13:39:12;6.90;73.10
31677;DHT22;18385;51.572;6.578;2024-01-15T13:41:38;6.70;72.40
31677;DHT22;18385;51.572;6.578;2024-01-15T13:44:06;6.50;72.30
31677;DHT22;18385;51.572;6.578;2024-01-15T13:46:32;6.30;72.60
31677;DHT22;18385;51.572;6.578;2024-01-15T13:48:59;6.20;72.90
31677;DHT22;18385;51.572;6.578;2024-01-15T13:51:25;6.10;73.00
31677;DHT22;18385;51.572;6.578;2024-01-15T13:53:51;6.00;73.10
31677;DHT22;18385;51.572;6.578;2024-01-15T13:56:17;5.90;73.20
31677;DHT22;18385;51.572;6.578;2024-01-15T13:58:43;5.80;73.40
31677;DHT22;18385;51.572;6.578;2024-01-15T14:01:16;5.80;73.60
31677;DHT22;18385;51.572;6.578;2024-01-15T14:03:44;5.80;73.80
31677;DHT22;18385;51.572;6.578;2024-01-15T14:06:10;5.80;74.00
31677;DHT22;18385;51.572;6.578;2024-01-15T14:08:36;5.90;74.10
31677;DHT22;18385;51.572;6.578;2024-01-15T14:11:03;6.00;74.10
31677;DHT22;18385;51.572;6.578;2024-01-15T14:13:29;6.00;74.10
31677;DHT22;18385;51.572;6.578;2024-01-15T14:15:54;6.20;74.00
31677;DHT22;18385;51.572;6.578;2024-01-15T14:18:21;6.30;74.40
31677;DHT22;18385;51.572;6.578;2024-01-15T14:20:47;6.40;73.90
31677;DHT22;18385;51.572;6.578;2024-01-15T14:23:13;6.50;73.70
31677;DHT22;18385;51.572;6.578;2024-01-15T14:25:39;6.50;73.60
31677;DHT22;18385;51.572;6.578;2024-01-15T14:28:05;6.60;73.70
31677;DHT22;18385;51.572;6.578;2024-01-15T14:30:30;6.60;73.50
31677;DHT22;18385;51.572;6.578;2024-01-15T14:32:56;6.50;73.10
31677;DHT22;18385;51.572;6.578;2024-01-15T14:35:22;6.30;72.90
31677;DHT22;18385;51.572;6.578;2024-01-15T14:37:48;6.20;73.20
31677;DHT22;18385;51.572;6.578;2024-01-15T14:40:13;6.10;73.30
31677;DHT22;18385;51.572;6.578;2024-01-15T14:42:41;6.00;73.20
31677;DHT22;18385;51.572;6.578;2024-01-15T14:45:07;5.80;73.20
31677;DHT22;18385;51.572;6.578;2024-01-15T14:47:40;5.80;73.50
31677;DHT22;18385;51.572;6.578;2024-01-15T14:50:07;5.70;73.50
31677;DHT22;18385;51.572;6.578;2024-01-15T14:52:33;5.70;73.50
31677;DHT22;18385;51.572;6.578;2024-01-15T14:55:00;5.70;73.70
31677;DHT22;18385;51.572;6.578;2024-01-15T14:57:25;5.70;73.70
31677;DHT22;18385;51.572;6.578;2024-01-15T14:59:51;5.60;73.60
31677;DHT22;18385;51.572;6.578;2024-01-15T15:02:17;5.60;73.60
31677;DHT22;18385;51.572;6.578;2024-01-15T15:04:43;5.50;73.70
31677;DHT22;18385;51.572;6.578;2024-01-15T15:07:09;5.60;74.00
31677;DHT22;18385;51.572;6.578;2024-01-15T15:09:36;5.60;74.00
31677;DHT22;18385;51.572;6.578;2024-01-15T15:12:03;5.70;74.00
31677;DHT22;18385;51.572;6.578;2024-01-15T15:14:30;5.70;73.80
31677;DHT22;18385;51.572;6.578;2024-01-15T15:16:57;5.80;73.90
31677;DHT22;18385;51.572;6.578;2024-01-15T15:19:23;5.80;73.80
31677;DHT22;18385;51.572;6.578;2024-01-15T15:21:48;5.80;73.50
31677;DHT22;18385;51.572;6.578;2024-01-15T15:24:14;5.80;73.50
31677;DHT22;18385;51.572;6.578;2024-01-15T15:26:40;5.80;73.50
31677;DHT22;18385;51.572;6.578;2024-01-15T15:29:05;5.80;73.70
31677;DHT22;18385;51.572;6.578;2024-01-15T15:31:31;5.70;73.40
31677;DHT22;18385;51.572;6.578;2024-01-15T15:33:56;5.70;73.50
31677;DHT22;18385;51.572;6.578;2024-01-15T15:36:22;5.60;73.50
31677;DHT22;18385;51.572;6.578;2024-01-15T15:38:49;5.50;73.30
31677;DHT22;18385;51.572;6.578;2024-01-15T15:41:15;5.40;73.20
31677;DHT22;18385;51.572;6.578;2024-01-15T15:43:40;5.30;73.40
31677;DHT22;18385;51.572;6.578;2024-01-15T15:46:06;5.20;73.60
31677;DHT22;18385;51.572;6.578;2024-01-15T15:48:32;5.20;74.10
31677;DHT22;18385;51.572;6.578;2024-01-15T15:50:57;5.20;74.10
31677;DHT22;18385;51.572;6.578;2024-01-15T15:53:25;5.20;73.90
31677;DHT22;18385;51.572;6.578;2024-01-15T15:55:51;5.10;73.70
31677;DHT22;18385;51.572;6.578;2024-01-15T15:58:17;5.00;73.70
31677;DHT22;18385;51.572;6.578;2024-01-15T16:00:43;5.00;73.90
31677;DHT22;18385;51.572;6.578;2024-01-15T16:03:08;5.00;73.90
31677;DHT22;18385;51.572;6.578;2024-01-15T16:05:34;5.10;74.10
31677;DHT22;18385;51.572;6.578;2024-01-15T16:08:00;5.10;74.20
31677;DHT22;18385;51.572;6.578;2024-01-15T16:10:26;5.10;74.10
31677;DHT22;18385;51.572;6.578;2024-01-15T16:12:51;5.10;73.80
31677;DHT22;18385;51.572;6.578;2024-01-15T16:15:21;5.10;73.70
31677;DHT22;18385;51.572;6.578;2024-01-15T16:17:51;5.10;74.10
31677;DHT22;18385;51.572;6.578;2024-01-15T16:20:17;5.10;74.10
31677;DHT22;18385;51.572;6.578;2024-01-15T16:22:43;5.10;73.90
31677;DHT22;18385;51.572;6.578;2024-01-15T16:25:09;5.10;74.10
31677;DHT22;18385;51.572;6.578;2024-01-15T16:27:35;5.20;74.40
31677;DHT22;18385;51.572;6.578;2024-01-15T16:30:03;5.20;74.30
31677;DHT22;18385;51.572;6.578;2024-01-15T16:32:29;5.30;74.10
31677;DHT22;18385;51.572;6.578;2024-01-15T16:34:54;5.30;73.80
31677;DHT22;18385;51.572;6.578;2024-01-15T16:37:20;5.30;73.70
31677;DHT22;18385;51.572;6.578;2024-01-15T16:39:46;5.30;73.50
31677;DHT22;18385;51.572;6.578;2024-01-15T16:42:11;5.20;73.50
31677;DHT22;18385;51.572;6.578;2024-01-15T16:44:37;5.10;73.50
31677;DHT22;18385;51.572;6.578;2024-01-15T16:47:03;5.00;73.60
31677;DHT22;18385;51.572;6.578;2024-01-15T16:49:30;4.90;73.60
31677;DHT22;18385;51.572;6.578;2024-01-15T16:51:56;4.80;73.80
31677;DHT22;18385;51.572;6.578;2024-01-15T16:54:22;4.70;74.70
31677;DHT22;18385;51.572;6.578;2024-01-15T16:56:48;4.70;74.30
31677;DHT22;18385;51.572;6.578;2024-01-15T16:59:14;4.80;74.50